Terminal Aerodrome Forecast
Issued by NWS

Home | Current Version | Previous Version | Graphics & Text | Print | Product List | Glossary On
Versions: 1 2 3 4 5 6 7 8 9 10 11 12
000
FTUS43 KUNR 171300 AAA
TAFGCC
TAF AMD
KGCC 171307Z 1713/1812 18012KT P6SM SCT150
      TEMPO 1713/1715 P6SM SCT005
     FM171600 20008KT P6SM SCT030 SCT100=

USA.gov is the U.S. government's official web portal to all federal, state and local government web resources and services.